Portada
METAR-TAF:

METAR-TAF

Aeroports :

Libreville, Gabon

latitud: 00-27N, longitud: 009-25E, altitud: 12 m

Observació

L'informe es va fer fa 15 minuts, a les 16:30 UTC
Vent 7 kt del Oest/Sud-Oest
Temperatura 31°C
Humitat 71%
Pressió 1008 hPa
Visibilitat 10 km o més
Escasses núvols a una alçada de 1000 ft

METAR: FOOL 181630Z 25007KT 9999 FEW010 31/25 Q1008 NOSIG

Hora: 17:45 (16:45 UTC)

Pronòstic

L'informe es va fer fa 5 hores i 34 minuts, a les 11:11 UTC
Pronòstic vàlid del 18 a les 12 UTC al 19 a les 18 UTC
Vent 6 kt del Sud/Sud-Oest
Visibilitat 10 km o més
Núvols disperses a una alçada de 1200 ft
Probabilitat 30% :
Temporalment
l' 18 a les 19 UTC al 18 a les 23 UTC
Cel ennuvolat a una alçada de 1000 ft
Escasses núvols a una alçada de 2000 ft, Cumulonimbus.
tempesta

TAF: FOOL 181111Z 1812/1918 21006KT 9999 SCT012 PROB30 TEMPO 1819/1823 TS BKN010 FEW020CB

Observacions i pronòstics meteorològics de més de 4000 aeroports (METAR i TAF).

Les estacions disponibles són els punts grocs i vermells al mapa.

Posi el ratolí al punt desitjat per veure el nom de l'estació.

Feu clic per veure les observacions i els pronòstics meteorològics.

Per canviar el mapa: feu clic els botons verds amb una creu de color negre per apropar; al botó verd amb un guió per allunyar la imatge; o en les fletxes verdes per a mapes adjacents.


METAR-TAF: